Terminal Aerodrome Forecast
Issued by NWS Portland, OR

Home | Current Version | Previous Version | Text Only | Print | Product List | Glossary On
Versions: 1 2 3 4 5 6 7 8 9 10 11 12 13 14 15
000
FTUS46 KPQR 202323
TAFTTD
TAF
KTTD 202323Z 2100/2124 VRB03KT P6SM BKN050 BKN100
     FM210900 09010G18KT P6SM -RA SCT025 OVC045
     FM211400 09018G25KT P6SM -RA SCT025 OVC045
     FM211800 09018G25KT 4SM -RA BR BKN025 OVC035=

USA.gov is the U.S. government's official web portal to all federal, state and local government web resources and services.